createdAt,value
2019-02-28T00:01:05.994Z,21.60
2019-02-28T00:03:35.338Z,21.67
2019-02-28T00:06:04.752Z,21.90
2019-02-28T00:08:34.098Z,21.97
2019-02-28T00:11:05.089Z,21.40
2019-02-28T00:13:34.502Z,20.27
2019-02-28T00:16:04.029Z,20.97
2019-02-28T00:18:33.470Z,21.13
2019-02-28T00:21:06.075Z,21.43
2019-02-28T00:23:33.982Z,21.50
2019-02-28T00:26:03.454Z,20.77
2019-02-28T00:28:32.797Z,20.77
2019-02-28T00:31:02.138Z,24.17
2019-02-28T00:33:31.678Z,27.53
2019-02-28T00:36:01.087Z,21.77
2019-02-28T00:38:30.453Z,21.30
2019-02-28T00:40:59.783Z,19.87
2019-02-28T00:43:29.137Z,20.57
2019-02-28T00:45:58.496Z,20.43
2019-02-28T00:48:27.827Z,18.77
2019-02-28T00:50:58.567Z,19.90
2019-02-28T00:53:28.245Z,19.00
2019-02-28T00:55:57.585Z,19.30
2019-02-28T00:58:28.847Z,19.27
2019-02-28T01:00:58.019Z,19.90
2019-02-28T01:03:27.654Z,20.93
2019-02-28T01:05:57.077Z,20.17
2019-02-28T01:08:26.475Z,19.03
2019-02-28T01:10:55.818Z,19.97
2019-02-28T01:13:28.060Z,19.23
2019-02-28T01:15:56.236Z,19.33
2019-02-28T01:18:25.585Z,18.67
2019-02-28T01:20:54.922Z,19.23
2019-02-28T01:23:24.274Z,20.43
2019-02-28T01:25:53.617Z,19.27
2019-02-28T01:28:23.401Z,19.10
2019-02-28T01:30:54.014Z,19.07
2019-02-28T01:33:25.026Z,19.47
2019-02-28T01:35:54.744Z,19.27
2019-02-28T01:38:25.104Z,19.07
2019-02-28T01:40:54.603Z,18.93
2019-02-28T01:43:28.393Z,18.93
2019-02-28T01:45:55.007Z,19.10
2019-02-28T01:48:24.342Z,19.07
2019-02-28T01:50:53.702Z,19.90
2019-02-28T01:53:23.023Z,18.47
2019-02-28T01:55:52.369Z,19.53
2019-02-28T01:58:21.711Z,20.63
2019-02-28T02:00:51.052Z,18.30
2019-02-28T02:03:20.390Z,19.90
2019-02-28T02:05:51.685Z,19.73
2019-02-28T02:08:21.033Z,19.83
2019-02-28T02:10:54.950Z,20.40
2019-02-28T02:13:21.436Z,17.90
2019-02-28T02:15:52.010Z,20.67
2019-02-28T02:18:21.458Z,19.13
2019-02-28T02:20:50.801Z,18.90
2019-02-28T02:23:20.138Z,19.53
2019-02-28T02:25:49.479Z,18.90
2019-02-28T02:28:18.822Z,19.63
2019-02-28T02:30:50.952Z,20.43
2019-02-28T02:33:19.293Z,19.67
2019-02-28T02:35:48.638Z,18.97
2019-02-28T02:38:17.975Z,19.37
2019-02-28T02:40:47.325Z,18.00
2019-02-28T02:43:16.664Z,18.60
2019-02-28T02:45:46.081Z,20.47
2019-02-28T02:48:15.431Z,20.00
2019-02-28T02:50:44.758Z,21.30
2019-02-28T02:53:14.102Z,20.43
2019-02-28T02:55:43.440Z,19.53
2019-02-28T02:58:12.800Z,19.17
2019-02-28T03:00:42.127Z,20.07
2019-02-28T03:03:11.487Z,17.77
2019-02-28T03:05:40.801Z,19.33
2019-02-28T03:08:10.148Z,20.43
2019-02-28T03:10:39.486Z,18.87
2019-02-28T03:13:08.820Z,20.20
2019-02-28T03:15:38.164Z,19.63
2019-02-28T03:18:07.503Z,18.73
2019-02-28T03:20:41.111Z,20.27
2019-02-28T03:23:08.208Z,21.20
2019-02-28T03:25:37.543Z,20.53
2019-02-28T03:28:06.892Z,19.00
2019-02-28T03:30:36.250Z,20.27
2019-02-28T03:33:05.568Z,19.77
2019-02-28T03:35:42.988Z,20.77
2019-02-28T03:38:10.661Z,21.60
2019-02-28T03:40:40.294Z,19.13
2019-02-28T03:43:08.493Z,21.17
2019-02-28T03:45:37.818Z,21.00
2019-02-28T03:48:07.163Z,21.07
2019-02-28T03:50:36.536Z,21.40
2019-02-28T03:53:05.854Z,20.87
2019-02-28T03:55:39.851Z,21.77
2019-02-28T03:58:07.146Z,20.80
2019-02-28T04:00:36.486Z,19.67
2019-02-28T04:03:07.045Z,20.97
2019-02-28T04:05:36.397Z,20.30
2019-02-28T04:08:05.745Z,20.90
2019-02-28T04:10:35.086Z,19.47
2019-02-28T04:13:04.407Z,21.63
2019-02-28T04:15:33.751Z,20.80
2019-02-28T04:18:06.628Z,20.17
2019-02-28T04:20:37.329Z,22.03
2019-02-28T04:23:05.230Z,21.73
2019-02-28T04:25:34.887Z,21.23
2019-02-28T04:28:04.206Z,21.43
2019-02-28T04:30:34.427Z,21.87
2019-02-28T04:33:03.781Z,21.27
2019-02-28T04:35:33.111Z,22.33
2019-02-28T04:38:02.445Z,21.50
2019-02-28T04:40:31.778Z,22.37
2019-02-28T04:43:01.113Z,22.13
2019-02-28T04:45:30.470Z,20.57
2019-02-28T04:47:59.812Z,22.13
2019-02-28T04:50:32.122Z,22.30
2019-02-28T04:53:00.219Z,24.57
2019-02-28T04:55:30.589Z,23.70
2019-02-28T04:58:00.170Z,21.80
2019-02-28T05:00:29.506Z,21.90
2019-02-28T05:02:58.849Z,20.93
2019-02-28T05:05:28.182Z,21.63
2019-02-28T05:07:57.521Z,22.57
2019-02-28T05:10:26.862Z,20.13
2019-02-28T05:12:56.203Z,20.93
2019-02-28T05:15:25.533Z,21.97
2019-02-28T05:17:55.882Z,21.17
2019-02-28T05:20:25.930Z,22.87
2019-02-28T05:22:55.267Z,20.70
2019-02-28T05:25:24.633Z,20.17
2019-02-28T05:27:53.942Z,22.50
2019-02-28T05:30:23.276Z,22.47
2019-02-28T05:32:52.629Z,24.47
2019-02-28T05:35:25.531Z,21.20
2019-02-28T05:37:53.031Z,22.47
2019-02-28T05:40:22.369Z,22.20
2019-02-28T05:42:54.705Z,22.27
2019-02-28T05:45:22.757Z,22.63
2019-02-28T05:47:52.097Z,23.73
2019-02-28T05:50:21.429Z,22.87
2019-02-28T05:52:50.766Z,24.20
2019-02-28T05:55:24.243Z,23.30
2019-02-28T05:57:51.160Z,22.47
2019-02-28T06:00:22.148Z,23.10
2019-02-28T06:02:54.396Z,22.27
2019-02-28T06:05:22.547Z,22.67
2019-02-28T06:07:51.886Z,22.93
2019-02-28T06:10:24.607Z,22.10
2019-02-28T06:12:52.565Z,23.53
2019-02-28T06:15:21.900Z,24.67
2019-02-28T06:17:54.679Z,22.57
2019-02-28T06:20:22.301Z,21.33
2019-02-28T06:22:51.707Z,20.73
2019-02-28T06:25:23.655Z,21.13
2019-02-28T06:27:52.129Z,21.73
2019-02-28T06:30:23.223Z,22.63
2019-02-28T06:32:57.644Z,23.53
2019-02-28T06:35:23.626Z,23.43
2019-02-28T06:37:52.962Z,23.87
2019-02-28T06:40:22.297Z,22.80
2019-02-28T06:42:51.634Z,22.03
2019-02-28T06:45:21.436Z,20.67
2019-02-28T06:47:50.782Z,21.60
2019-02-28T06:50:20.121Z,24.93
2019-02-28T06:52:49.456Z,24.47
2019-02-28T06:55:26.410Z,22.73
2019-02-28T06:57:58.859Z,24.73
2019-02-28T07:00:26.828Z,23.80
2019-02-28T07:02:56.173Z,25.00
2019-02-28T07:05:26.284Z,24.33
2019-02-28T07:07:59.695Z,26.30
2019-02-28T07:10:29.037Z,25.47
2019-02-28T07:13:01.438Z,23.53
2019-02-28T07:15:29.441Z,25.67
2019-02-28T07:17:58.788Z,26.37
2019-02-28T07:20:28.131Z,25.27
2019-02-28T07:22:57.476Z,24.67
2019-02-28T07:25:26.816Z,25.97
2019-02-28T07:27:56.161Z,27.30
2019-02-28T07:30:25.497Z,24.77
2019-02-28T07:32:54.849Z,25.00
2019-02-28T07:35:24.187Z,24.30
2019-02-28T07:37:54.548Z,23.00
2019-02-28T07:40:23.971Z,22.60
2019-02-28T07:42:53.309Z,21.90
2019-02-28T07:45:22.657Z,24.43
2019-02-28T07:47:52.878Z,24.37
2019-02-28T07:50:22.205Z,23.57
2019-02-28T07:52:53.116Z,24.93
2019-02-28T07:55:22.843Z,23.40
2019-02-28T07:57:56.255Z,27.63
2019-02-28T08:00:25.432Z,26.57
2019-02-28T08:02:54.779Z,28.17
2019-02-28T08:05:29.794Z,29.80
2019-02-28T08:07:55.559Z,29.43
2019-02-28T08:10:34.098Z,29.30
2019-02-28T08:13:04.101Z,31.30
2019-02-28T08:15:33.772Z,30.20
2019-02-28T08:18:03.090Z,30.83
2019-02-28T08:20:33.938Z,32.83
2019-02-28T08:23:03.508Z,33.90
2019-02-28T08:25:32.864Z,34.30
2019-02-28T08:28:02.181Z,32.60
2019-02-28T08:30:34.028Z,35.53
2019-02-28T08:33:05.225Z,34.33
2019-02-28T08:35:35.783Z,35.47
2019-02-28T08:38:06.730Z,34.47
2019-02-28T08:40:36.304Z,35.00
2019-02-28T08:43:05.812Z,37.00
2019-02-28T08:45:35.164Z,36.93
2019-02-28T08:48:04.658Z,38.93
2019-02-28T08:50:34.013Z,38.23
2019-02-28T08:53:06.908Z,34.47
2019-02-28T08:55:38.376Z,36.67
2019-02-28T08:58:07.324Z,36.10
2019-02-28T09:00:37.683Z,37.33
2019-02-28T09:03:07.218Z,36.40
2019-02-28T09:05:36.557Z,37.47
2019-02-28T09:08:05.899Z,39.80
2019-02-28T09:10:36.856Z,40.60
2019-02-28T09:13:08.685Z,40.03
2019-02-28T09:15:37.375Z,40.27
2019-02-28T09:18:07.406Z,39.83
2019-02-28T09:20:36.768Z,44.27
2019-02-28T09:23:06.428Z,39.67
2019-02-28T09:25:35.832Z,39.37
2019-02-28T09:28:05.168Z,40.60
2019-02-28T09:30:41.655Z,41.57
2019-02-28T09:33:11.006Z,41.20
2019-02-28T09:35:45.227Z,39.83
2019-02-28T09:38:13.579Z,39.73
2019-02-28T09:40:42.480Z,42.57
2019-02-28T09:43:11.830Z,39.57
2019-02-28T09:45:41.283Z,40.80
2019-02-28T09:48:10.594Z,41.47
2019-02-28T09:50:39.939Z,41.47
2019-02-28T09:53:09.284Z,39.80
2019-02-28T09:55:39.873Z,39.53
2019-02-28T09:58:09.251Z,42.73
2019-02-28T10:00:38.837Z,40.20
2019-02-28T10:03:08.176Z,40.97
2019-02-28T10:05:39.055Z,40.07
2019-02-28T10:08:08.889Z,38.93
2019-02-28T10:10:38.232Z,39.93
2019-02-28T10:13:07.579Z,40.53
2019-02-28T10:15:38.616Z,42.37
2019-02-28T10:18:07.995Z,40.93
2019-02-28T10:20:40.323Z,42.27
2019-02-28T10:23:09.663Z,46.13
2019-02-28T10:25:43.401Z,42.73
2019-02-28T10:28:10.170Z,42.63
2019-02-28T10:30:39.532Z,43.77
2019-02-28T10:33:08.876Z,42.43
2019-02-28T10:35:38.225Z,41.67
2019-02-28T10:38:07.572Z,41.07
2019-02-28T10:40:36.919Z,40.07
2019-02-28T10:43:06.275Z,45.07
2019-02-28T10:45:41.058Z,42.33
2019-02-28T10:48:06.704Z,41.90
2019-02-28T10:50:38.550Z,47.17
2019-02-28T10:53:07.890Z,44.30
2019-02-28T10:55:37.243Z,42.80
2019-02-28T10:58:06.593Z,43.67
2019-02-28T11:00:42.907Z,45.40
2019-02-28T11:03:12.248Z,46.83
2019-02-28T11:05:46.114Z,44.20
2019-02-28T11:08:19.141Z,47.30
2019-02-28T11:10:48.350Z,44.00
2019-02-28T11:13:22.971Z,47.00
2019-02-28T11:15:54.130Z,46.90
2019-02-28T11:18:23.543Z,45.80
2019-02-28T11:20:53.163Z,44.83
2019-02-28T11:23:23.576Z,45.53
2019-02-28T11:25:53.795Z,47.57
2019-02-28T11:28:27.783Z,47.90
2019-02-28T11:30:54.559Z,47.13
2019-02-28T11:33:23.958Z,47.23
2019-02-28T11:35:57.861Z,46.83
2019-02-28T11:38:24.623Z,47.40
2019-02-28T11:40:57.401Z,46.67
2019-02-28T11:43:26.785Z,51.47
2019-02-28T11:45:56.447Z,53.53
2019-02-28T11:48:30.036Z,47.53
2019-02-28T11:50:59.388Z,48.90
2019-02-28T11:53:28.731Z,49.80
2019-02-28T11:55:58.112Z,54.43
2019-02-28T11:58:27.457Z,47.57
2019-02-28T12:00:56.975Z,52.10
2019-02-28T12:03:26.333Z,47.63
2019-02-28T12:05:55.673Z,49.20
2019-02-28T12:08:25.089Z,46.77
2019-02-28T12:10:54.452Z,45.97
2019-02-28T12:13:23.790Z,43.33
2019-02-28T12:15:53.242Z,42.33
2019-02-28T12:18:22.580Z,41.47
2019-02-28T12:20:51.924Z,39.50
2019-02-28T12:23:23.526Z,38.03
2019-02-28T12:25:52.344Z,35.53
2019-02-28T12:28:21.859Z,35.70
2019-02-28T12:30:51.211Z,35.03
2019-02-28T12:33:23.255Z,36.70
2019-02-28T12:35:51.714Z,38.80
2019-02-28T12:38:21.054Z,35.07
2019-02-28T12:40:50.400Z,38.23
2019-02-28T12:43:19.744Z,38.30
2019-02-28T12:45:49.359Z,38.63
2019-02-28T12:48:18.770Z,40.23
2019-02-28T12:50:48.112Z,39.73
2019-02-28T12:53:17.461Z,37.80
2019-02-28T12:55:47.374Z,36.70
2019-02-28T12:58:16.724Z,37.77
2019-02-28T13:00:47.171Z,33.67
2019-02-28T13:03:20.048Z,34.93
2019-02-28T13:05:49.325Z,35.63
2019-02-28T13:08:18.739Z,34.00
2019-02-28T13:10:48.083Z,36.87
2019-02-28T13:13:21.626Z,35.77
2019-02-28T13:15:49.279Z,34.93
2019-02-28T13:18:19.046Z,36.03
2019-02-28T13:20:48.479Z,34.47
2019-02-28T13:23:17.969Z,38.90
2019-02-28T13:25:47.332Z,38.43
2019-02-28T13:28:17.710Z,44.57
2019-02-28T13:30:50.229Z,54.00
2019-02-28T13:33:18.823Z,46.47
2019-02-28T13:35:48.467Z,47.57
2019-02-28T13:38:19.569Z,45.53
2019-02-28T13:40:49.310Z,49.00
2019-02-28T13:43:21.097Z,49.10
2019-02-28T13:45:50.877Z,51.73
2019-02-28T13:48:26.066Z,50.60
2019-02-28T13:50:52.412Z,46.77
2019-02-28T13:53:23.395Z,46.27
2019-02-28T13:55:57.748Z,39.80
2019-02-28T13:58:24.560Z,41.60
2019-02-28T14:00:53.901Z,37.60
2019-02-28T14:03:23.248Z,33.97
2019-02-28T14:05:52.590Z,30.40
2019-02-28T14:08:22.125Z,23.20
2019-02-28T14:10:52.161Z,22.63
2019-02-28T14:13:21.506Z,19.03
2019-02-28T14:15:53.148Z,17.20
2019-02-28T14:18:22.590Z,17.13
2019-02-28T14:20:51.924Z,15.87
2019-02-28T14:23:21.660Z,15.87
2019-02-28T14:25:51.163Z,14.00
2019-02-28T14:28:20.511Z,14.77
2019-02-28T14:30:49.863Z,13.77
2019-02-28T14:33:20.636Z,14.10
2019-02-28T14:35:50.098Z,14.33
2019-02-28T14:38:19.441Z,14.43
2019-02-28T14:40:49.657Z,12.83
2019-02-28T14:43:20.757Z,13.70
2019-02-28T14:45:50.195Z,12.73
2019-02-28T14:48:19.553Z,14.17
2019-02-28T14:50:50.560Z,14.00
2019-02-28T14:53:20.019Z,12.70
2019-02-28T14:55:49.935Z,12.43
2019-02-28T14:58:21.261Z,9.73
2019-02-28T15:00:50.355Z,9.53
2019-02-28T15:03:19.694Z,8.90
2019-02-28T15:05:49.034Z,8.83
2019-02-28T15:08:18.545Z,8.77
2019-02-28T15:10:48.254Z,8.93
2019-02-28T15:13:17.657Z,7.27
2019-02-28T15:15:49.558Z,7.00
2019-02-28T15:18:18.169Z,5.90
2019-02-28T15:20:47.511Z,6.43
2019-02-28T15:23:16.859Z,6.80
2019-02-28T15:25:46.205Z,7.27
2019-02-28T15:28:15.546Z,4.90
2019-02-28T15:30:44.896Z,4.63
2019-02-28T15:33:14.240Z,4.03
2019-02-28T15:35:46.525Z,4.30
2019-02-28T15:38:14.919Z,4.93
2019-02-28T15:40:46.472Z,6.03
2019-02-28T15:43:18.128Z,5.33
2019-02-28T15:45:46.881Z,5.60
2019-02-28T15:48:16.232Z,6.47
2019-02-28T15:50:51.217Z,6.03
2019-02-28T15:53:16.639Z,4.27
2019-02-28T15:55:46.150Z,5.33
2019-02-28T15:58:16.692Z,4.50
2019-02-28T16:00:46.087Z,4.40
2019-02-28T16:03:16.641Z,4.33
2019-02-28T16:05:46.496Z,3.90
2019-02-28T16:08:15.890Z,3.83
2019-02-28T16:10:52.873Z,3.90
2019-02-28T16:13:16.298Z,3.50
2019-02-28T16:15:46.365Z,3.93
2019-02-28T16:18:16.718Z,4.13
2019-02-28T16:20:46.071Z,3.37
2019-02-28T16:23:15.485Z,3.93
2019-02-28T16:25:46.901Z,3.43
2019-02-28T16:28:15.901Z,3.03
2019-02-28T16:30:45.238Z,3.27
2019-02-28T16:33:14.580Z,3.33
2019-02-28T16:35:46.786Z,4.27
2019-02-28T16:38:14.991Z,4.17
2019-02-28T16:40:44.335Z,2.77
2019-02-28T16:43:13.776Z,3.10
2019-02-28T16:45:44.750Z,2.53
2019-02-28T16:48:14.089Z,2.60
2019-02-28T16:50:43.426Z,2.87
2019-02-28T16:53:16.035Z,3.70
2019-02-28T16:55:43.830Z,2.80
2019-02-28T16:58:13.173Z,3.40
2019-02-28T17:00:46.143Z,4.10
2019-02-28T17:03:15.845Z,3.10
2019-02-28T17:05:44.945Z,2.93
2019-02-28T17:08:15.584Z,3.03
2019-02-28T17:10:45.486Z,4.17
2019-02-28T17:13:22.275Z,2.80
2019-02-28T17:16:01.440Z,2.53
2019-02-28T17:18:29.090Z,3.00
2019-02-28T17:20:58.440Z,4.87
2019-02-28T17:23:27.785Z,3.30
2019-02-28T17:25:57.636Z,3.00
2019-02-28T17:28:40.361Z,2.57
2019-02-28T17:31:27.829Z,2.53
2019-02-28T17:33:57.176Z,2.13
2019-02-28T17:36:26.526Z,2.40
2019-02-28T17:38:55.883Z,3.07
2019-02-28T17:41:25.225Z,2.83
2019-02-28T17:44:28.236Z,2.70
2019-02-28T17:47:27.835Z,3.90
2019-02-28T17:50:27.484Z,3.37
2019-02-28T17:53:25.124Z,2.90
2019-02-28T17:56:37.592Z,2.60
2019-02-28T17:59:39.030Z,3.37
2019-02-28T18:02:44.698Z,3.10
2019-02-28T18:05:39.277Z,2.83
2019-02-28T18:08:18.579Z,2.93
2019-02-28T18:11:10.188Z,2.90
2019-02-28T18:14:05.032Z,2.93
2019-02-28T18:16:47.790Z,3.23
2019-02-28T18:19:39.316Z,3.20
2019-02-28T18:22:28.001Z,2.70
2019-02-28T18:25:24.369Z,3.07
2019-02-28T18:28:22.633Z,3.10
2019-02-28T18:31:09.162Z,2.53
2019-02-28T18:33:44.888Z,2.70
2019-02-28T18:36:16.485Z,3.33
2019-02-28T18:38:45.825Z,3.10
2019-02-28T18:41:15.167Z,3.33
2019-02-28T18:43:44.506Z,4.20
2019-02-28T18:46:13.851Z,3.23
2019-02-28T18:48:43.194Z,3.50
2019-02-28T18:51:12.536Z,3.20
2019-02-28T18:53:41.877Z,3.03
2019-02-28T18:56:11.215Z,2.63
2019-02-28T18:58:40.572Z,2.83
2019-02-28T19:01:09.913Z,3.20
2019-02-28T19:03:39.587Z,3.07
2019-02-28T19:06:08.931Z,3.33
2019-02-28T19:08:38.273Z,3.87
2019-02-28T19:11:07.661Z,4.03
2019-02-28T19:13:38.170Z,3.87
2019-02-28T19:16:07.516Z,4.20
2019-02-28T19:18:36.855Z,4.33
2019-02-28T19:21:06.198Z,4.67
2019-02-28T19:23:35.535Z,4.27
2019-02-28T19:26:04.875Z,5.20
2019-02-28T19:28:34.223Z,5.33
2019-02-28T19:31:03.569Z,4.93
2019-02-28T19:33:32.907Z,5.43
2019-02-28T19:36:02.274Z,5.03
2019-02-28T19:38:31.590Z,5.17
2019-02-28T19:41:00.933Z,6.10
2019-02-28T19:43:30.275Z,6.20
2019-02-28T19:45:59.620Z,8.73
2019-02-28T19:48:28.968Z,6.00
2019-02-28T19:50:58.315Z,7.30
2019-02-28T19:53:27.675Z,6.03
2019-02-28T19:55:57.013Z,7.33
2019-02-28T19:58:26.356Z,7.03
2019-02-28T20:00:55.699Z,6.83
2019-02-28T20:03:25.078Z,7.17
2019-02-28T20:05:54.420Z,7.67
2019-02-28T20:08:23.763Z,7.70
2019-02-28T20:10:53.110Z,6.87
2019-02-28T20:13:25.095Z,7.77
2019-02-28T20:15:54.498Z,7.77
2019-02-28T20:18:23.843Z,7.57
2019-02-28T20:20:53.254Z,8.83
2019-02-28T20:23:23.364Z,9.00
2019-02-28T20:25:53.671Z,7.87
2019-02-28T20:28:23.011Z,8.57
2019-02-28T20:30:52.349Z,9.40
2019-02-28T20:33:21.797Z,8.13
2019-02-28T20:35:51.134Z,8.87
2019-02-28T20:38:20.566Z,9.27
2019-02-28T20:40:49.910Z,9.07
2019-02-28T20:43:19.426Z,8.97
2019-02-28T20:45:48.766Z,8.20
2019-02-28T20:48:18.678Z,8.87
2019-02-28T20:50:54.112Z,8.03
2019-02-28T20:53:23.455Z,10.03
2019-02-28T20:55:52.795Z,10.17
2019-02-28T20:58:22.144Z,9.07
2019-02-28T21:00:51.481Z,9.87
2019-02-28T21:03:20.827Z,9.40
2019-02-28T21:05:50.170Z,9.03
2019-02-28T21:08:19.515Z,8.93
2019-02-28T21:10:48.931Z,8.83
2019-02-28T21:13:18.278Z,9.63
2019-02-28T21:15:47.619Z,9.63
2019-02-28T21:18:17.047Z,9.50
2019-02-28T21:20:46.386Z,9.30
2019-02-28T21:23:15.730Z,10.87
2019-02-28T21:25:45.074Z,9.97
2019-02-28T21:28:14.419Z,10.60
2019-02-28T21:30:43.766Z,11.13
2019-02-28T21:33:13.117Z,11.27
2019-02-28T21:35:42.460Z,11.57
2019-02-28T21:38:11.872Z,11.73
2019-02-28T21:40:41.215Z,11.97
2019-02-28T21:43:10.569Z,11.00
2019-02-28T21:45:40.358Z,11.17
2019-02-28T21:48:09.782Z,10.70
2019-02-28T21:50:39.133Z,10.63
2019-02-28T21:53:08.481Z,10.47
2019-02-28T21:55:37.822Z,13.10
2019-02-28T21:58:07.540Z,11.57
2019-02-28T22:00:36.879Z,9.83
2019-02-28T22:03:06.593Z,10.50
2019-02-28T22:05:35.936Z,10.60
2019-02-28T22:08:05.284Z,11.07
2019-02-28T22:10:34.632Z,10.87
2019-02-28T22:13:04.046Z,10.30
2019-02-28T22:15:33.402Z,11.57
2019-02-28T22:18:02.744Z,10.63
2019-02-28T22:20:32.093Z,10.30
2019-02-28T22:23:01.435Z,11.27
2019-02-28T22:25:30.787Z,12.07
2019-02-28T22:28:00.133Z,11.37
2019-02-28T22:30:43.034Z,12.67
2019-02-28T22:33:14.023Z,13.17
2019-02-28T22:35:50.738Z,11.23
2019-02-28T22:38:20.072Z,11.27
2019-02-28T22:40:49.415Z,10.90
2019-02-28T22:43:18.754Z,11.23
2019-02-28T22:45:48.099Z,11.57
2019-02-28T22:48:17.442Z,11.40
2019-02-28T22:50:46.782Z,11.47
2019-02-28T22:53:16.119Z,10.67
2019-02-28T22:55:45.466Z,10.80
2019-02-28T22:58:14.803Z,10.63
2019-02-28T23:01:07.689Z,10.93
2019-02-28T23:03:37.735Z,12.73
2019-02-28T23:06:07.700Z,11.57
2019-02-28T23:08:36.986Z,10.67
2019-02-28T23:11:06.385Z,11.30
2019-02-28T23:13:35.730Z,11.50
2019-02-28T23:16:05.411Z,10.90
2019-02-28T23:18:34.751Z,11.90
2019-02-28T23:21:04.367Z,11.57
2019-02-28T23:23:33.714Z,13.83
2019-02-28T23:26:07.678Z,12.47
2019-02-28T23:28:43.965Z,13.63
2019-02-28T23:31:26.721Z,12.40
2019-02-28T23:34:03.199Z,13.20
2019-02-28T23:36:32.548Z,14.77
2019-02-28T23:39:01.895Z,14.20
2019-02-28T23:41:31.243Z,14.90
2019-02-28T23:44:00.620Z,13.63
2019-02-28T23:46:30.535Z,15.33
2019-02-28T23:48:59.879Z,13.73
2019-02-28T23:51:29.232Z,16.10
2019-02-28T23:53:58.577Z,16.10
2019-02-28T23:56:27.939Z,16.50
2019-02-28T23:58:57.283Z,17.67
